Pomona, Missouri
Current Conditions -  °F | °C
As of 10:53 AM on Saturday 20 Dec 2014 (Local Time) from KUNO Reporting Station
Haze Haze  
Wind Chill: 34°   Ceiling: 700
Heat Index: 38°   Visibility: 6mi
Dew Point: 34°   Wind: 5mph
Humidity: 86%   Direction: 170°S
Pressure: 30.26"   Gusts: NA
Location:  36.87°N, 91.91°W
Report Text: KUNO 201653Z AUTO 17004KT 6SM BR BKN007 OVC018 03/01 A3026 RMK AO2 SLP254 T00330011 $
Loading
Personal Weather Stations






























Interactive Weather Map New forecast layout! Learn more

10-Day Weather Forecast

Advertisements
Track Severe Weather on mobile